createdAt,value
2022-10-18T00:00:46.233Z,101320.59
2022-10-18T00:03:15.493Z,101315.84
2022-10-18T00:05:46.464Z,101338.34
2022-10-18T00:08:16.484Z,101332.09
2022-10-18T00:10:45.243Z,101342.94
2022-10-18T00:13:17.294Z,101342.94
2022-10-18T00:15:51.254Z,101344.63
2022-10-18T00:18:20.455Z,101316.19
2022-10-18T00:21:00.316Z,101311.09
2022-10-18T00:23:30.304Z,101350.22
2022-10-18T00:26:05.034Z,101306.03
2022-10-18T00:28:35.045Z,101315.06
2022-10-18T00:31:15.157Z,101306.13
2022-10-18T00:33:44.424Z,101303.56
2022-10-18T00:36:16.593Z,101306.19
2022-10-18T00:38:45.794Z,101322.44
2022-10-18T00:41:16.074Z,101335.47
2022-10-18T00:43:59.916Z,101309.25
2022-10-18T00:46:30.753Z,101339.63
2022-10-18T00:49:02.004Z,101329.78
2022-10-18T00:51:37.635Z,101315.16
2022-10-18T00:54:06.654Z,101294.00
2022-10-18T00:56:36.076Z,101300.69
2022-10-18T00:59:05.003Z,101304.41
2022-10-18T01:01:34.076Z,101341.78
2022-10-18T01:04:03.064Z,101299.47
2022-10-18T01:06:34.203Z,101320.78
2022-10-18T01:09:16.384Z,101349.09
2022-10-18T01:11:59.864Z,101335.53
2022-10-18T01:14:39.844Z,101337.13
2022-10-18T01:17:13.554Z,101305.94
2022-10-18T01:20:20.224Z,101316.09
2022-10-18T01:23:00.743Z,101300.03
2022-10-18T01:25:42.103Z,101330.53
2022-10-18T01:28:26.709Z,101303.50
2022-10-18T01:31:01.524Z,101349.25
2022-10-18T01:33:39.714Z,101350.34
2022-10-18T01:36:15.813Z,101336.16
2022-10-18T01:38:46.554Z,101316.84
2022-10-18T01:41:17.423Z,101336.94
2022-10-18T01:43:49.599Z,101302.28
2022-10-18T01:46:23.403Z,101314.22
2022-10-18T01:48:53.576Z,101328.53
2022-10-18T01:51:27.613Z,101338.00
2022-10-18T01:53:56.367Z,101345.09
2022-10-18T01:56:35.684Z,101329.84
2022-10-18T01:59:14.889Z,101325.88
2022-10-18T02:01:55.383Z,101372.69
2022-10-18T02:04:35.554Z,101363.44
2022-10-18T02:07:11.303Z,101352.44
2022-10-18T02:09:42.933Z,101374.66
2022-10-18T02:12:15.045Z,101327.88
2022-10-18T02:14:45.466Z,101319.16
2022-10-18T02:17:17.664Z,101342.28
2022-10-18T02:19:51.303Z,101321.31
2022-10-18T02:22:21.804Z,101316.97
2022-10-18T02:24:53.157Z,101323.94
2022-10-18T02:27:22.115Z,101316.81
2022-10-18T02:29:51.614Z,101343.13
2022-10-18T02:32:27.777Z,101340.06
2022-10-18T02:35:02.273Z,101325.66
2022-10-18T02:37:35.493Z,101349.44
2022-10-18T02:40:06.554Z,101356.38
2022-10-18T02:42:37.223Z,101324.97
2022-10-18T02:45:07.690Z,101354.84
2022-10-18T02:47:37.795Z,101376.19
2022-10-18T02:50:07.216Z,101340.22
2022-10-18T02:52:36.105Z,101350.53
2022-10-18T02:55:05.366Z,101348.00
2022-10-18T02:57:34.340Z,101332.22
2022-10-18T03:00:03.266Z,101376.41
2022-10-18T03:02:31.864Z,101369.78
2022-10-18T03:05:01.969Z,101372.56
2022-10-18T03:07:30.823Z,101385.19
2022-10-18T03:09:59.774Z,101369.94
2022-10-18T03:12:28.804Z,101373.50
2022-10-18T03:14:57.427Z,101359.94
2022-10-18T03:17:26.054Z,101376.03
2022-10-18T03:19:54.654Z,101364.41
2022-10-18T03:22:25.576Z,101337.91
2022-10-18T03:24:54.384Z,101395.94
2022-10-18T03:27:23.144Z,101356.56
2022-10-18T03:29:51.725Z,101342.22
2022-10-18T03:32:20.464Z,101355.72
2022-10-18T03:34:49.006Z,101358.94
2022-10-18T03:37:17.774Z,101364.03
2022-10-18T03:39:48.046Z,101328.28
2022-10-18T03:42:16.556Z,101340.91
2022-10-18T03:44:45.084Z,101336.59
2022-10-18T03:47:14.545Z,101361.94
2022-10-18T03:49:43.125Z,101335.22
2022-10-18T03:52:11.766Z,101345.47
2022-10-18T03:54:40.445Z,101332.84
2022-10-18T03:57:13.655Z,101347.94
2022-10-18T03:59:42.304Z,101373.25
2022-10-18T04:02:12.294Z,101369.88
2022-10-18T04:04:41.014Z,101358.41
2022-10-18T04:07:09.766Z,101348.25
2022-10-18T04:09:38.344Z,101383.66
2022-10-18T04:12:07.344Z,101332.69
2022-10-18T04:14:38.567Z,101368.63
2022-10-18T04:17:07.066Z,101348.25
2022-10-18T04:19:35.764Z,101381.25
2022-10-18T04:22:04.674Z,101349.31
2022-10-18T04:24:33.264Z,101354.09
2022-10-18T04:27:01.901Z,101393.22
2022-10-18T04:29:30.555Z,101397.56
2022-10-18T04:32:00.904Z,101386.59
2022-10-18T04:34:29.622Z,101402.69
2022-10-18T04:36:58.415Z,101404.78
2022-10-18T04:39:27.044Z,101371.44
2022-10-18T04:41:55.705Z,101366.41
2022-10-18T04:44:24.354Z,101409.72
2022-10-18T04:46:52.955Z,101404.47
2022-10-18T04:49:23.054Z,101402.78
2022-10-18T04:51:51.666Z,101373.34
2022-10-18T04:54:21.860Z,101371.03
2022-10-18T04:56:52.624Z,101402.22
2022-10-18T04:59:25.974Z,101396.31
2022-10-18T05:01:54.964Z,101415.78
2022-10-18T05:04:25.157Z,101408.41
2022-10-18T05:06:55.764Z,101410.97
2022-10-18T05:09:25.006Z,101423.66
2022-10-18T05:11:53.584Z,101400.16
2022-10-18T05:14:22.235Z,101434.00
2022-10-18T05:16:50.844Z,101440.22
2022-10-18T05:19:19.784Z,101403.88
2022-10-18T05:21:49.924Z,101451.50
2022-10-18T05:24:18.494Z,101403.03
2022-10-18T05:26:47.244Z,101440.38
2022-10-18T05:29:16.448Z,101416.66
2022-10-18T05:31:45.186Z,101438.53
2022-10-18T05:34:13.724Z,101441.06
2022-10-18T05:36:43.965Z,101442.00
2022-10-18T05:39:14.042Z,101431.97
2022-10-18T05:41:42.605Z,101424.22
2022-10-18T05:44:11.615Z,101405.41
2022-10-18T05:46:42.725Z,101399.31
2022-10-18T05:49:13.010Z,101427.53
2022-10-18T05:51:41.637Z,101426.69
2022-10-18T05:54:15.395Z,101448.09
2022-10-18T05:56:45.520Z,101428.88
2022-10-18T05:59:14.209Z,101417.81
2022-10-18T06:01:44.239Z,101434.06
2022-10-18T06:04:12.939Z,101444.38
2022-10-18T06:06:42.030Z,101435.16
2022-10-18T06:09:11.443Z,101423.25
2022-10-18T06:11:40.017Z,101452.09
2022-10-18T06:14:11.251Z,101445.31
2022-10-18T06:16:39.943Z,101448.69
2022-10-18T06:19:08.469Z,101433.53
2022-10-18T06:21:37.039Z,101478.00
2022-10-18T06:24:05.809Z,101443.22
2022-10-18T06:26:34.391Z,101433.72
2022-10-18T06:29:05.395Z,101486.31
2022-10-18T06:31:35.992Z,101484.63
2022-10-18T06:34:05.080Z,101467.81
2022-10-18T06:36:33.670Z,101440.44
2022-10-18T06:39:02.931Z,101490.53
2022-10-18T06:41:31.530Z,101453.53
2022-10-18T06:44:03.729Z,101483.28
2022-10-18T06:46:32.230Z,101447.84
2022-10-18T06:49:02.110Z,101467.41
2022-10-18T06:51:31.386Z,101480.22
2022-10-18T06:54:16.889Z,101460.94
2022-10-18T06:56:46.552Z,101443.75
2022-10-18T06:59:15.590Z,101443.75
2022-10-18T07:01:44.806Z,101459.56
2022-10-18T07:04:15.289Z,101487.84
2022-10-18T07:06:43.860Z,101467.03
2022-10-18T07:09:12.440Z,101489.31
2022-10-18T07:11:41.109Z,101470.69
2022-10-18T07:14:15.350Z,101458.22
2022-10-18T07:16:44.821Z,101492.47
2022-10-18T07:19:15.486Z,101472.13
2022-10-18T07:21:44.010Z,101483.44
2022-10-18T07:24:12.599Z,101489.50
2022-10-18T07:26:42.674Z,101491.34
2022-10-18T07:29:13.460Z,101480.13
2022-10-18T07:31:42.369Z,101510.97
2022-10-18T07:34:13.459Z,101516.19
2022-10-18T07:36:43.640Z,101515.91
2022-10-18T07:39:12.159Z,101524.66
2022-10-18T07:41:40.751Z,101533.56
2022-10-18T07:44:09.559Z,101516.59
2022-10-18T07:46:38.109Z,101519.91
2022-10-18T07:49:06.701Z,101535.19
2022-10-18T07:51:36.309Z,101538.84
2022-10-18T07:54:06.849Z,101504.53
2022-10-18T07:56:35.909Z,101491.50
2022-10-18T07:59:09.834Z,101542.56
2022-10-18T08:01:41.134Z,101506.00
2022-10-18T08:04:13.977Z,101525.59
2022-10-18T08:06:44.879Z,101520.22
2022-10-18T08:09:15.419Z,101505.22
2022-10-18T08:11:46.208Z,101526.28
2022-10-18T08:14:17.061Z,101531.94
2022-10-18T08:16:45.819Z,101527.38
2022-10-18T08:19:14.979Z,101519.91
2022-10-18T08:21:43.489Z,101505.44
2022-10-18T08:24:12.009Z,101507.03
2022-10-18T08:26:42.132Z,101525.69
2022-10-18T08:29:31.679Z,101481.34
2022-10-18T08:32:00.950Z,101510.50
2022-10-18T08:34:29.689Z,101508.03
2022-10-18T08:36:58.280Z,101494.00
2022-10-18T08:39:27.481Z,101493.03
2022-10-18T08:42:37.089Z,101526.69
2022-10-18T08:45:13.016Z,101521.16
2022-10-18T08:47:52.379Z,101529.84
2022-10-18T08:50:24.089Z,101516.06
2022-10-18T08:52:56.070Z,101476.75
2022-10-18T08:55:31.462Z,101480.97
2022-10-18T08:58:02.178Z,101506.50
2022-10-18T09:00:35.815Z,101485.31
2022-10-18T09:03:18.172Z,101484.47
2022-10-18T09:05:52.038Z,101518.63
2022-10-18T09:08:39.530Z,101505.88
2022-10-18T09:11:17.880Z,101480.53
2022-10-18T09:14:05.143Z,101515.22
2022-10-18T09:16:47.499Z,101495.84
2022-10-18T09:19:30.510Z,101470.88
2022-10-18T09:22:07.474Z,101486.22
2022-10-18T09:24:42.319Z,101502.13
2022-10-18T09:27:17.810Z,101487.69
2022-10-18T09:29:59.018Z,101477.59
2022-10-18T09:32:40.669Z,101452.53
2022-10-18T09:35:19.169Z,101476.47
2022-10-18T09:37:49.089Z,101486.63
2022-10-18T09:40:20.942Z,101481.69
2022-10-18T09:42:56.249Z,101494.31
2022-10-18T09:45:31.230Z,101491.34
2022-10-18T09:48:06.795Z,101497.94
2022-10-18T09:50:39.839Z,101486.31
2022-10-18T09:53:19.262Z,101463.81
2022-10-18T09:56:02.382Z,101487.13
2022-10-18T09:58:47.956Z,101448.31
2022-10-18T10:01:21.655Z,101485.56
2022-10-18T10:03:50.354Z,101485.94
2022-10-18T10:06:25.569Z,101472.50
2022-10-18T10:09:01.581Z,101512.41
2022-10-18T10:11:41.690Z,101501.16
2022-10-18T10:16:55.230Z,101513.63
2022-10-18T10:19:30.360Z,101491.81
2022-10-18T10:22:07.589Z,101510.16
2022-10-18T10:24:45.112Z,101463.34
2022-10-18T10:27:21.270Z,101478.53
2022-10-18T10:29:54.138Z,101508.19
2022-10-18T10:35:00.529Z,101479.19
2022-10-18T10:37:39.533Z,101504.31
2022-10-18T10:40:30.450Z,101496.91
2022-10-18T10:43:33.100Z,101501.22
2022-10-18T10:46:08.339Z,101522.72
2022-10-18T10:48:50.018Z,101516.47
2022-10-18T10:51:30.400Z,101524.41
2022-10-18T10:54:04.785Z,101491.09
2022-10-18T10:56:35.319Z,101492.81
2022-10-18T10:59:14.996Z,101499.97
2022-10-18T11:01:43.974Z,101479.44
2022-10-18T11:04:32.040Z,101504.97
2022-10-18T11:07:14.644Z,101511.66
2022-10-18T11:09:53.269Z,101507.44
2022-10-18T11:12:30.645Z,101503.03
2022-10-18T11:15:10.246Z,101513.22
2022-10-18T11:17:46.485Z,101506.72
2022-10-18T11:20:30.884Z,101505.88
2022-10-18T11:23:02.509Z,101498.38
2022-10-18T11:26:04.051Z,101498.00
2022-10-18T11:28:56.859Z,101500.53
2022-10-18T11:31:31.400Z,101492.75
2022-10-18T11:34:16.339Z,101489.34
2022-10-18T11:37:25.952Z,101477.31
2022-10-18T11:39:59.179Z,101476.16
2022-10-18T11:42:39.700Z,101465.50
2022-10-18T11:45:23.077Z,101466.84
2022-10-18T11:48:00.159Z,101421.47
2022-10-18T11:50:36.440Z,101454.41
2022-10-18T11:53:19.159Z,101461.50
2022-10-18T11:56:02.419Z,101462.63
2022-10-18T11:58:46.020Z,101464.13
2022-10-18T12:01:26.121Z,101467.22
2022-10-18T12:04:04.490Z,101464.66
2022-10-18T12:06:36.804Z,101464.81
2022-10-18T12:09:16.179Z,101467.81
2022-10-18T12:11:54.875Z,101456.38
2022-10-18T12:14:29.213Z,101463.09
2022-10-18T12:17:35.939Z,101452.63
2022-10-18T12:19:56.031Z,101465.72
2022-10-18T12:22:30.012Z,101463.00
2022-10-18T12:25:00.159Z,101471.50
2022-10-18T12:27:38.070Z,101466.41
2022-10-18T12:30:15.749Z,101464.44
2022-10-18T12:32:56.488Z,101461.22
2022-10-18T12:35:44.059Z,101465.81
2022-10-18T12:38:21.329Z,101462.34
2022-10-18T12:40:54.399Z,101464.78
2022-10-18T12:43:26.379Z,101465.47
2022-10-18T12:45:57.599Z,101462.84
2022-10-18T12:48:33.420Z,101466.13
2022-10-18T12:51:07.489Z,101462.94
2022-10-18T12:53:36.860Z,101447.41
2022-10-18T12:56:38.314Z,101470.66
2022-10-18T12:59:45.209Z,101471.97
2022-10-18T13:02:27.181Z,101462.06
2022-10-18T13:07:45.049Z,101467.41
2022-10-18T13:10:40.389Z,101459.63
2022-10-18T13:13:41.913Z,101455.13
2022-10-18T13:16:35.510Z,101450.69
2022-10-18T13:19:20.248Z,101450.63
2022-10-18T13:21:58.289Z,101444.09
2022-10-18T13:24:35.479Z,101452.94
2022-10-18T13:27:34.857Z,101449.59
2022-10-18T13:30:28.799Z,101435.34
2022-10-18T13:33:06.609Z,101445.75
2022-10-18T13:35:56.269Z,101432.78
2022-10-18T13:38:49.739Z,101432.53
2022-10-18T13:41:21.013Z,101437.13
2022-10-18T13:44:20.349Z,101446.09
2022-10-18T13:47:15.929Z,101441.09
2022-10-18T13:49:59.292Z,101434.34
2022-10-18T13:52:38.783Z,101430.53
2022-10-18T13:55:31.089Z,101429.41
2022-10-18T13:58:09.341Z,101430.06
2022-10-18T14:00:52.557Z,101427.81
2022-10-18T14:04:07.230Z,101407.41
2022-10-18T14:06:37.949Z,101430.91
2022-10-18T14:09:25.522Z,101431.03
2022-10-18T14:11:56.949Z,101425.16
2022-10-18T14:14:35.331Z,101419.25
2022-10-18T14:17:18.049Z,101427.91
2022-10-18T14:19:55.302Z,101416.69
2022-10-18T14:22:26.802Z,101415.28
2022-10-18T14:24:57.089Z,101424.09
2022-10-18T14:27:27.560Z,101418.94
2022-10-18T14:30:11.389Z,101425.97
2022-10-18T14:32:44.159Z,101417.41
2022-10-18T14:35:32.115Z,101417.41
2022-10-18T14:38:02.266Z,101412.41
2022-10-18T14:40:34.830Z,101416.06
2022-10-18T14:43:05.400Z,101422.16
2022-10-18T14:45:33.829Z,101428.47
2022-10-18T14:48:17.239Z,101420.91
2022-10-18T14:50:50.821Z,101420.16
2022-10-18T14:53:22.260Z,101419.03
2022-10-18T14:55:58.050Z,101421.50
2022-10-18T14:58:26.670Z,101414.44
2022-10-18T15:00:55.648Z,101400.47
2022-10-18T15:03:25.169Z,101399.75
2022-10-18T15:05:57.920Z,101397.84
2022-10-18T15:08:28.482Z,101394.88
2022-10-18T15:10:59.530Z,101396.59
2022-10-18T15:13:28.469Z,101376.84
2022-10-18T15:15:57.484Z,101387.84
2022-10-18T15:18:28.262Z,101365.25
2022-10-18T15:21:11.899Z,101391.06
2022-10-18T15:23:40.380Z,101392.00
2022-10-18T15:26:14.019Z,101387.78
2022-10-18T15:28:50.505Z,101373.78
2022-10-18T15:31:26.039Z,101384.28
2022-10-18T15:33:56.119Z,101376.38
2022-10-18T15:36:33.369Z,101375.38
2022-10-18T15:39:17.659Z,101376.00
2022-10-18T15:41:51.344Z,101382.88
2022-10-18T15:44:24.600Z,101381.84
2022-10-18T15:46:54.739Z,101385.03
2022-10-18T15:49:55.590Z,101367.78
2022-10-18T15:52:39.336Z,101365.47
2022-10-18T15:55:50.909Z,101355.38
2022-10-18T15:58:22.934Z,101340.38
2022-10-18T16:00:52.699Z,101349.69
2022-10-18T16:03:24.178Z,101369.06
2022-10-18T16:05:57.562Z,101369.97
2022-10-18T16:08:30.731Z,101371.22
2022-10-18T16:11:00.226Z,101359.34
2022-10-18T16:13:29.248Z,101363.69
2022-10-18T16:15:59.733Z,101370.59
2022-10-18T16:18:28.824Z,101330.13
2022-10-18T16:20:58.099Z,101330.22
2022-10-18T16:23:29.866Z,101336.75
2022-10-18T16:25:59.020Z,101328.28
2022-10-18T16:28:28.389Z,101312.94
2022-10-18T16:30:59.074Z,101326.16
2022-10-18T16:33:28.339Z,101356.03
2022-10-18T16:35:56.910Z,101356.13
2022-10-18T16:38:34.265Z,101317.38
2022-10-18T16:41:04.901Z,101356.38
2022-10-18T16:43:34.971Z,101355.97
2022-10-18T16:46:04.909Z,101319.16
2022-10-18T16:48:33.890Z,101348.66
2022-10-18T16:51:05.731Z,101316.47
2022-10-18T16:53:35.757Z,101319.75
2022-10-18T16:56:07.681Z,101330.66
2022-10-18T16:58:36.249Z,101299.28
2022-10-18T17:01:08.022Z,101295.81
2022-10-18T17:03:37.708Z,101300.94
2022-10-18T17:06:07.980Z,101304.53
2022-10-18T17:08:38.849Z,101324.00
2022-10-18T17:11:07.589Z,101347.00
2022-10-18T17:13:36.180Z,101316.88
2022-10-18T17:16:05.719Z,101342.25
2022-10-18T17:18:34.399Z,101365.44
2022-10-18T17:21:03.430Z,101315.84
2022-10-18T17:23:32.481Z,101358.66
2022-10-18T17:26:21.933Z,101356.97
2022-10-18T17:28:52.778Z,101349.34
2022-10-18T17:31:21.479Z,101354.59
2022-10-18T17:33:50.470Z,101349.34
2022-10-18T17:36:19.260Z,101350.22
2022-10-18T17:38:48.605Z,101354.88
2022-10-18T17:41:18.759Z,101358.94
2022-10-18T17:43:48.514Z,101354.03
2022-10-18T17:46:18.192Z,101354.03
2022-10-18T17:48:47.389Z,101348.00
2022-10-18T17:51:18.754Z,101346.16
2022-10-18T17:53:47.511Z,101336.56
2022-10-18T17:56:18.435Z,101344.44
2022-10-18T17:58:47.460Z,101332.44
2022-10-18T18:01:18.302Z,101340.13
2022-10-18T18:03:48.119Z,101341.06
2022-10-18T18:06:18.869Z,101334.47
2022-10-18T18:08:48.299Z,101332.25
2022-10-18T18:11:19.480Z,101321.25
2022-10-18T18:13:48.189Z,101340.81
2022-10-18T18:16:18.779Z,101326.44
2022-10-18T18:18:48.629Z,101326.00
2022-10-18T18:21:17.710Z,101311.28
2022-10-18T18:23:46.399Z,101328.63
2022-10-18T18:26:15.049Z,101319.81
2022-10-18T18:28:49.620Z,101311.28
2022-10-18T18:31:23.730Z,101303.19
2022-10-18T18:33:53.700Z,101279.47
2022-10-18T18:36:23.459Z,101279.81
2022-10-18T18:38:56.840Z,101267.88
2022-10-18T18:41:27.560Z,101277.03
2022-10-18T18:43:59.521Z,101243.03
2022-10-18T18:46:30.899Z,101226.88
2022-10-18T18:49:00.145Z,101263.84
2022-10-18T18:51:28.849Z,101203.28
2022-10-18T18:53:57.439Z,101209.97
2022-10-18T18:56:29.289Z,101225.94
2022-10-18T18:59:00.580Z,101215.03
2022-10-18T19:01:31.411Z,101227.38
2022-10-18T19:04:01.245Z,101204.22
2022-10-18T19:06:31.900Z,101244.94
2022-10-18T19:09:05.404Z,101242.53
2022-10-18T19:11:36.759Z,101240.81
2022-10-18T19:14:07.764Z,101250.53
2022-10-18T19:16:38.094Z,101257.38
2022-10-18T19:19:08.252Z,101245.81
2022-10-18T19:21:41.043Z,101220.16
2022-10-18T19:24:10.018Z,101249.47
2022-10-18T19:26:45.290Z,101264.19
2022-10-18T19:29:18.319Z,101257.41
2022-10-18T19:31:50.211Z,101250.81
2022-10-18T19:34:20.461Z,101239.09
2022-10-18T19:36:50.509Z,101264.66
2022-10-18T19:39:23.252Z,101237.84
2022-10-18T19:41:55.514Z,101246.06
2022-10-18T19:44:27.680Z,101227.91
2022-10-18T19:46:56.489Z,101207.56
2022-10-18T19:49:25.150Z,101200.09
2022-10-18T19:51:59.739Z,101179.06
2022-10-18T19:54:29.139Z,101177.00
2022-10-18T19:56:57.914Z,101180.66
2022-10-18T19:59:28.161Z,101167.91
2022-10-18T20:01:57.101Z,101179.84
2022-10-18T20:04:26.119Z,101164.81
2022-10-18T20:06:54.850Z,101143.69
2022-10-18T20:09:33.982Z,101172.91
2022-10-18T20:12:02.680Z,101182.75
2022-10-18T20:14:33.520Z,101186.19
2022-10-18T20:17:02.160Z,101166.81
2022-10-18T20:19:33.250Z,101182.78
2022-10-18T20:22:01.869Z,101172.72
2022-10-18T20:24:30.730Z,101174.25
2022-10-18T20:26:59.470Z,101160.72
2022-10-18T20:29:28.390Z,101165.75
2022-10-18T20:31:58.550Z,101145.72
2022-10-18T20:34:28.809Z,101164.09
2022-10-18T20:36:57.439Z,101144.47
2022-10-18T20:39:26.364Z,101140.66
2022-10-18T20:41:54.979Z,101142.75
2022-10-18T20:44:25.605Z,101124.81
2022-10-18T20:46:54.431Z,101149.19
2022-10-18T20:49:24.479Z,101136.78
2022-10-18T20:51:53.159Z,101156.22
2022-10-18T20:54:21.800Z,101147.50
2022-10-18T20:56:51.279Z,101147.38
2022-10-18T20:59:20.000Z,101149.00
2022-10-18T21:01:49.190Z,101118.63
2022-10-18T21:04:17.819Z,101105.78
2022-10-18T21:06:47.799Z,101128.69
2022-10-18T21:09:18.654Z,101133.38
2022-10-18T21:11:52.532Z,101125.25
2022-10-18T21:14:22.839Z,101128.59
2022-10-18T21:16:53.279Z,101125.13
2022-10-18T21:19:23.939Z,101124.22
2022-10-18T21:21:56.114Z,101125.06
2022-10-18T21:24:26.376Z,101106.59
2022-10-18T21:26:56.029Z,101105.84
2022-10-18T21:29:27.279Z,101101.97
2022-10-18T21:31:59.511Z,101092.53
2022-10-18T21:34:28.476Z,101093.72
2022-10-18T21:36:58.404Z,101107.50
2022-10-18T21:39:27.155Z,101110.97
2022-10-18T21:41:55.879Z,101106.88
2022-10-18T21:44:24.719Z,101119.81
2022-10-18T21:46:53.240Z,101133.84
2022-10-18T21:49:25.217Z,101150.28
2022-10-18T21:51:53.820Z,101130.97
2022-10-18T21:54:24.949Z,101129.81
2022-10-18T21:56:53.464Z,101123.91
2022-10-18T21:59:22.114Z,101129.28
2022-10-18T22:01:50.599Z,101121.47
2022-10-18T22:04:27.061Z,101131.16
2022-10-18T22:06:55.559Z,101146.41
2022-10-18T22:09:26.355Z,101172.59
2022-10-18T22:12:01.314Z,101181.03
2022-10-18T22:14:30.109Z,101194.91
2022-10-18T22:16:58.689Z,101196.41
2022-10-18T22:19:27.339Z,101202.34
2022-10-18T22:21:56.140Z,101184.81
2022-10-18T22:24:26.280Z,101182.25
2022-10-18T22:26:58.044Z,101188.16
2022-10-18T22:29:26.569Z,101175.91
2022-10-18T22:31:55.939Z,101175.91
2022-10-18T22:34:27.786Z,101167.25
2022-10-18T22:36:59.491Z,101165.47
2022-10-18T22:39:29.454Z,101145.59
2022-10-18T22:41:57.924Z,101140.34
2022-10-18T22:44:26.841Z,101126.44
2022-10-18T22:46:55.389Z,101117.06
2022-10-18T22:49:23.850Z,101111.53
2022-10-18T22:51:52.464Z,101105.63
2022-10-18T22:54:21.473Z,101095.75
2022-10-18T22:56:51.620Z,101089.03
2022-10-18T22:59:20.315Z,101074.31
2022-10-18T23:01:48.949Z,101060.91
2022-10-18T23:04:17.539Z,101054.13
2022-10-18T23:06:46.230Z,101044.88
2022-10-18T23:09:15.119Z,101038.56
2022-10-18T23:11:43.864Z,101028.16
2022-10-18T23:14:16.639Z,101017.09
2022-10-18T23:16:45.267Z,101016.63
2022-10-18T23:19:16.979Z,101008.13
2022-10-18T23:21:45.571Z,101003.69
2022-10-18T23:24:14.350Z,101000.97
2022-10-18T23:26:42.910Z,101006.84
2022-10-18T23:29:11.828Z,100997.50
2022-10-18T23:31:44.859Z,100993.47
2022-10-18T23:34:13.610Z,100990.66
2022-10-18T23:36:42.208Z,100989.06
2022-10-18T23:39:11.824Z,100984.69
2022-10-18T23:41:40.473Z,100985.59
2022-10-18T23:44:11.072Z,100989.25
2022-10-18T23:46:39.699Z,100993.47
2022-10-18T23:49:09.724Z,101000.63
2022-10-18T23:51:38.389Z,101010.25
2022-10-18T23:54:06.914Z,101016.72
2022-10-18T23:56:35.519Z,101011.47
2022-10-18T23:59:04.091Z,101023.00
